Disclaimer

Please do not use the information listed here in-flight or in-navigation, as they are not provided to us by the airports but are provided by volunteers, so they might be outdated.

Search


Regions


Airport information page

Radio informations:
Melbourne Center - 122.6 MHz
Common traffic adv. frequency (CTAF) - 126.7 MHz

Airport informations:
Latitude: 26° 36' 42.00" S
Longitude: 118° 32' 52.00" E
Elevation: 1713 feet - 522 meters
Operating hours: N/A
Operating agency: Civil government, landing fees and diplomatic clearance may be required
Timezone: UTC+8
Fuel: Jet A1, without icing nhibitor.

100/130 MIL Spec, low lead, aviation gasoline (BLUE)

Runway information:
09/27 - 7156 x 98 feet< - >2181 x 30 meters
15/33 - 3494 x 98 feet< - >1065 x 30 meters

Recent METARs:
YMEK 142100Z AUTO 08011KT 9999 // NCD 24/06 Q1016
YMEK 142100Z AUTO 08011KT 9999 // NCD 24/06 Q1016
YMEK 142200Z AUTO 07012KT 9999 // NCD 25/05 Q1017

Airport on the map: